Johns Pass, Florida
Current Conditions -  °F | °C
As of 12:53 AM on Sunday 21 Dec 2014 (Local Time) from KPIE Reporting Station
Overcast Overcast  
Wind Chill: 64°   Ceiling: 8500
Heat Index: 64°   Visibility: 10mi
Dew Point: 61°   Wind: 0mph
Humidity: 90%   Direction: NA
Pressure: 30.07"   Gusts: NA
Location:  27.8164°N, 82.7802°W
Report Text: KPIE 210553Z 00000KT 10SM OVC085 18/16 A3007 RMK AO2 SLP182 T01780161 10200 20161 56006 $
Loading
Personal Weather Stations






























Interactive Weather Map New forecast layout! Learn more

10-Day Weather Forecast

Advertisements
Track Severe Weather on mobile